Time;durP1;ratioP1;P1;durP2;ratioP2;P2;SDS_P1;SDS_P2;PMS_P1;PMS_P2;Temp;Humidity;BMP_temperature;BMP_pressure;BME280_temperature;BME280_humidity;BME280_pressure;Samples;Min_cycle;Max_cycle;Signal;HPM_P1;HPM_P2
2021/06/19 00:00:32;;;;;;;15.00;13.73;;;;;;;15.96;74.68;96340.81;3584625;40;20047;-56
2021/06/19 00:02:59;;;;;;;14.30;12.68;;;;;;;15.93;74.70;96337.94;3584656;40;20320;-56
2021/06/19 00:05:28;;;;;;;14.02;12.68;;;;;;;15.87;74.69;96331.88;3592580;40;20044;-57
2021/06/19 00:07:56;;;;;;;14.95;13.55;;;;;;;15.86;75.28;96340.13;3567880;40;20405;-57
2021/06/19 00:10:23;;;;;;;16.52;13.85;;;;;;;15.82;75.42;96340.66;3593669;40;20052;-57
2021/06/19 00:12:54;;;;;;;14.70;13.32;;;;;;;15.70;75.26;96332.25;3594161;40;20363;-56
2021/06/19 00:15:23;;;;;;;13.27;12.05;;;;;;;15.73;75.46;96341.53;3575924;40;20044;-57
2021/06/19 00:17:52;;;;;;;14.75;13.23;;;;;;;15.73;75.55;96339.66;3593699;40;20345;-56
2021/06/19 00:20:22;;;;;;;14.93;13.43;;;;;;;15.72;75.85;96335.41;3592065;39;20044;-57
2021/06/19 00:22:51;;;;;;;17.83;14.90;;;;;;;15.69;75.56;96334.09;3594191;40;20084;-56
2021/06/19 00:25:20;;;;;;;15.52;14.02;;;;;;;15.72;75.62;96339.94;3593851;40;20061;-57
2021/06/19 00:27:48;;;;;;;15.27;13.70;;;;;;;15.73;75.14;96337.00;3567915;40;20040;-57
2021/06/19 00:30:17;;;;;;;18.45;14.40;;;;;;;15.69;74.79;96325.34;3584510;40;20040;-57
2021/06/19 00:32:46;;;;;;;15.52;14.02;;;;;;;15.79;75.33;96329.78;3593222;39;20062;-56
2021/06/19 00:35:15;;;;;;;16.08;14.23;;;;;;;15.80;74.84;96326.84;3584506;40;20066;-56
2021/06/19 00:37:43;;;;;;;16.73;14.95;;;;;;;15.75;74.95;96329.56;3593902;39;20058;-56
2021/06/19 00:40:12;;;;;;;17.15;13.75;;;;;;;15.67;75.15;96332.78;3584513;40;20058;-57
2021/06/19 00:42:50;;;;;;;15.93;13.38;;;;;;;15.61;75.46;96333.91;3584515;40;20048;-57
2021/06/19 00:45:18;;;;;;;20.23;15.68;;;;;;;15.58;74.88;96332.59;3593381;40;20040;-56
2021/06/19 00:47:45;;;;;;;16.42;14.77;;;;;;;15.57;75.53;96331.00;3584067;40;20054;-56
2021/06/19 00:50:13;;;;;;;15.10;13.18;;;;;;;15.58;75.60;96331.81;3593308;39;20056;-57
2021/06/19 00:52:42;;;;;;;15.30;13.80;;;;;;;15.57;75.61;96330.22;3594052;40;20074;-56
2021/06/19 00:55:10;;;;;;;15.80;12.73;;;;;;;15.59;75.55;96333.38;3593800;40;20079;-56
2021/06/19 00:57:38;;;;;;;14.38;12.98;;;;;;;15.56;75.38;96334.75;3593827;40;20305;-57
2021/06/19 01:00:08;;;;;;;14.57;13.10;;;;;;;15.55;75.78;96342.97;3576841;40;20200;-57
2021/06/19 01:02:37;;;;;;;20.00;13.38;;;;;;;15.53;75.49;96344.06;3583601;40;20071;-56
2021/06/19 01:05:07;;;;;;;14.45;12.65;;;;;;;15.51;75.38;96340.88;3584228;39;20606;-57
2021/06/19 01:07:36;;;;;;;13.02;11.50;;;;;;;15.49;75.48;96336.91;3576024;40;20058;-56
2021/06/19 01:10:05;;;;;;;12.40;11.30;;;;;;;15.50;75.29;96339.31;3593643;40;20048;-57
2021/06/19 01:12:33;;;;;;;12.45;11.18;;;;;;;15.51;75.65;96334.78;3583950;40;20189;-57
2021/06/19 01:15:01;;;;;;;12.50;10.95;;;;;;;15.50;75.58;96343.81;3575164;40;20048;-56
2021/06/19 01:17:29;;;;;;;11.00;9.80;;;;;;;15.50;75.42;96338.50;3574378;40;20077;-57
2021/06/19 01:20:05;;;;;;;12.93;11.57;;;;;;;15.48;74.83;96345.94;3583559;40;20056;-57
2021/06/19 01:22:34;;;;;;;12.35;11.25;;;;;;;15.45;74.94;96343.84;3591552;40;20062;-57
2021/06/19 01:25:11;;;;;;;11.52;10.55;;;;;;;15.44;75.06;96337.75;3567231;40;20109;-56
2021/06/19 01:27:39;;;;;;;12.82;11.50;;;;;;;15.41;74.78;96340.94;3593138;40;20062;-57
2021/06/19 01:30:09;;;;;;;11.95;10.88;;;;;;;15.39;75.38;96329.78;3584268;40;20073;-56
2021/06/19 01:32:39;;;;;;;11.20;10.20;;;;;;;15.37;75.34;96327.41;3576300;40;20052;-57
2021/06/19 01:35:09;;;;;;;12.25;11.00;;;;;;;15.40;74.70;96322.63;3585821;39;20044;-57
2021/06/19 01:37:43;;;;;;;11.25;10.02;;;;;;;15.42;74.96;96323.16;3585249;40;20320;-56
2021/06/19 01:40:18;;;;;;;12.93;11.70;;;;;;;15.37;74.52;96323.97;3577342;40;20069;-57
2021/06/19 01:42:47;;;;;;;13.18;10.95;;;;;;;15.33;75.02;96331.69;3593984;40;20062;-56
2021/06/19 01:45:20;;;;;;;12.10;10.90;;;;;;;15.27;74.74;96329.34;3594752;40;20074;-56
2021/06/19 01:47:49;;;;;;;12.13;11.13;;;;;;;15.21;75.44;96328.56;3595035;39;20052;-57
2021/06/19 01:50:22;;;;;;;11.40;10.40;;;;;;;15.20;75.45;96325.13;3594141;40;20107;-56
2021/06/19 01:52:51;;;;;;;17.30;11.57;;;;;;;15.19;75.71;96334.16;3577024;40;20052;-56
2021/06/19 01:55:20;;;;;;;11.90;10.90;;;;;;;15.19;75.61;96331.50;3584602;40;20052;-56
2021/06/19 01:57:51;;;;;;;11.57;10.48;;;;;;;15.17;75.64;96338.19;3594701;40;20040;-57
2021/06/19 02:00:27;;;;;;;11.88;10.77;;;;;;;15.12;75.70;96338.19;3594248;39;20308;-57
2021/06/19 02:02:55;;;;;;;15.00;10.27;;;;;;;15.14;75.98;96338.72;3577235;40;20050;-56
2021/06/19 02:05:23;;;;;;;12.85;11.50;;;;;;;15.16;75.57;96336.59;3593521;40;20058;-56
2021/06/19 02:07:52;;;;;;;12.00;10.57;;;;;;;15.16;75.63;96331.28;3593805;40;20338;-57
2021/06/19 02:10:31;;;;;;;10.82;9.93;;;;;;;15.17;75.52;96340.84;3595128;40;20062;-57
2021/06/19 02:13:00;;;;;;;12.85;11.60;;;;;;;15.14;75.56;96333.41;3585491;40;20369;-56
2021/06/19 02:15:28;;;;;;;11.90;10.65;;;;;;;15.14;75.51;96333.41;3577531;40;20052;-57
2021/06/19 02:17:56;;;;;;;12.25;11.10;;;;;;;15.11;75.56;96336.59;3585034;40;20048;-57
2021/06/19 02:20:26;;;;;;;12.73;11.52;;;;;;;15.11;75.99;96339.25;3585115;40;20056;-56
2021/06/19 02:22:54;;;;;;;13.70;12.23;;;;;;;15.10;76.45;96337.66;3585100;40;20058;-57
2021/06/19 02:25:25;;;;;;;11.23;10.32;;;;;;;15.05;76.35;96334.00;3594264;40;20054;-57
2021/06/19 02:28:01;;;;;;;12.30;11.27;;;;;;;15.02;76.27;96325.75;3585410;40;20050;-56
2021/06/19 02:30:36;;;;;;;11.60;10.50;;;;;;;15.01;76.26;96332.94;3584993;40;20055;-56
2021/06/19 02:33:04;;;;;;;13.63;11.93;;;;;;;14.99;77.26;96339.59;3585837;40;20054;-57
2021/06/19 02:35:34;;;;;;;13.63;12.30;;;;;;;14.97;76.26;96329.22;3585013;40;20052;-56
2021/06/19 02:38:02;;;;;;;14.70;12.15;;;;;;;14.98;76.11;96336.13;3585345;40;20419;-56
2021/06/19 02:40:30;;;;;;;12.65;11.48;;;;;;;14.96;76.08;96327.66;3594108;40;20388;-56
2021/06/19 02:42:59;;;;;;;14.70;13.07;;;;;;;14.92;76.82;96326.63;3594341;39;20089;-56
2021/06/19 02:45:27;;;;;;;13.60;11.88;;;;;;;14.90;76.50;96332.19;3593705;40;20379;-57
2021/06/19 02:47:56;;;;;;;11.63;10.50;;;;;;;14.89;76.70;96327.16;3577051;40;20056;-56
2021/06/19 02:50:31;;;;;;;13.48;12.20;;;;;;;14.90;76.36;96331.41;3583587;40;20128;-57
2021/06/19 02:52:59;;;;;;;11.32;10.13;;;;;;;14.90;76.36;96334.84;3585279;40;20117;-57
2021/06/19 02:55:31;;;;;;;11.80;10.63;;;;;;;14.90;75.91;96342.81;3576407;40;20056;-56
2021/06/19 02:57:59;;;;;;;13.07;11.55;;;;;;;14.91;76.43;96343.63;3585077;40;20044;-56
2021/06/19 03:00:27;;;;;;;12.13;10.82;;;;;;;14.91;76.38;96343.63;3593924;40;20052;-57
2021/06/19 03:02:55;;;;;;;12.90;10.75;;;;;;;14.94;76.43;96353.72;3577109;40;20054;-57
2021/06/19 03:05:26;;;;;;;12.35;11.25;;;;;;;15.00;76.55;96351.81;3592641;39;20052;-57
2021/06/19 03:07:54;;;;;;;12.90;11.57;;;;;;;14.99;75.89;96350.22;3594250;40;20320;-56
2021/06/19 03:10:35;;;;;;;13.43;12.23;;;;;;;15.02;76.40;96363.75;3583496;40;20052;-57
2021/06/19 03:13:03;;;;;;;14.65;12.35;;;;;;;15.02;76.16;96361.09;3594639;40;20077;-56
2021/06/19 03:15:31;;;;;;;12.60;11.50;;;;;;;14.99;75.74;96361.63;3575887;40;20044;-57
2021/06/19 03:17:59;;;;;;;12.68;11.57;;;;;;;15.01;76.26;96356.84;3576809;40;20052;-57
2021/06/19 03:20:27;;;;;;;10.25;9.45;;;;;;;15.01;75.49;96353.41;3593898;39;20051;-57
2021/06/19 03:22:58;;;;;;;10.35;9.45;;;;;;;15.01;75.37;96354.19;3576165;40;20040;-56
2021/06/19 03:25:28;;;;;;;11.70;10.40;;;;;;;15.05;75.85;96357.91;3584552;40;20059;-57
2021/06/19 03:27:58;;;;;;;13.63;11.15;;;;;;;15.10;75.52;96361.59;3594270;39;20405;-56
2021/06/19 03:30:28;;;;;;;14.07;11.70;;;;;;;15.35;74.74;96355.34;3592591;40;20056;-56
2021/06/19 03:32:56;;;;;;;14.15;11.35;;;;;;;16.37;72.25;96370.81;3576498;40;20304;-56
2021/06/19 03:35:24;;;;;;;11.63;10.52;;;;;;;17.32;69.43;96362.25;3593764;40;20144;-57
2021/06/19 03:37:53;;;;;;;13.38;11.30;;;;;;;18.18;67.85;96357.75;3583667;40;20048;-56
2021/06/19 03:40:23;;;;;;;12.23;11.05;;;;;;;18.94;63.12;96344.06;3593865;40;20413;-57
2021/06/19 03:42:51;;;;;;;9.77;8.80;;;;;;;19.53;60.29;96346.00;3576145;40;20219;-57
2021/06/19 03:45:29;;;;;;;11.27;10.27;;;;;;;19.96;60.00;96353.59;3593847;40;20494;-57
2021/06/19 03:47:57;;;;;;;14.13;12.52;;;;;;;20.56;57.00;96351.53;3584103;40;20052;-57
2021/06/19 03:50:26;;;;;;;14.73;13.32;;;;;;;21.05;56.93;96356.13;3593625;39;20062;-57
2021/06/19 03:52:56;;;;;;;14.30;11.23;;;;;;;21.48;55.64;96357.28;3584193;40;20054;-57
2021/06/19 03:55:26;;;;;;;12.52;11.32;;;;;;;21.85;53.09;96363.13;3593262;39;20080;-55
2021/06/19 03:57:55;;;;;;;14.55;10.25;;;;;;;22.24;52.80;96352.47;3593219;40;20386;-57
2021/06/19 04:00:23;;;;;;;10.02;8.40;;;;;;;22.71;51.67;96359.75;3593995;40;20048;-55
2021/06/19 04:02:51;;;;;;;10.80;8.48;;;;;;;23.11;49.89;96353.22;3584656;40;20474;-55
2021/06/19 04:05:18;;;;;;;10.35;9.00;;;;;;;23.23;49.87;96345.25;3584221;40;20054;-56
2021/06/19 04:07:46;;;;;;;10.88;8.75;;;;;;;23.53;48.81;96353.25;3577069;40;20419;-57
2021/06/19 04:10:16;;;;;;;11.27;10.25;;;;;;;23.82;48.64;96348.09;3585171;40;20411;-55
2021/06/19 04:12:45;;;;;;;10.93;8.77;;;;;;;23.98;47.72;96351.78;3594562;40;20047;-55
2021/06/19 04:15:13;;;;;;;10.50;9.32;;;;;;;24.10;47.07;96348.34;3582226;40;20292;-56
2021/06/19 04:17:42;;;;;;;10.00;8.50;;;;;;;24.18;46.62;96342.09;3593940;40;20058;-55
2021/06/19 04:20:12;;;;;;;9.27;8.32;;;;;;;24.26;47.45;96341.19;3584316;40;20048;-55
2021/06/19 04:22:41;;;;;;;10.55;9.55;;;;;;;24.42;47.49;96348.63;3584385;40;20418;-55
2021/06/19 04:25:12;;;;;;;17.83;10.80;;;;;;;24.71;45.90;96344.16;3584754;40;20054;-55
2021/06/19 04:27:47;;;;;;;10.68;9.75;;;;;;;24.87;44.83;96336.19;3592829;39;20054;-55
2021/06/19 04:30:16;;;;;;;12.43;9.63;;;;;;;25.10;44.58;96328.41;3585074;40;20062;-57
2021/06/19 04:32:45;;;;;;;10.00;9.00;;;;;;;25.80;44.35;96337.34;3584391;40;20082;-56
2021/06/19 04:35:14;;;;;;;10.30;9.30;;;;;;;26.07;42.36;96341.13;3592670;39;20051;-57
2021/06/19 04:37:43;;;;;;;10.40;9.23;;;;;;;25.66;43.41;96342.34;3584415;40;20055;-57
2021/06/19 04:42:56;;;;;;;10.85;9.98;;;;;;;25.84;43.74;96330.13;3593582;40;20058;-54
2021/06/19 04:45:24;;;;;;;11.82;10.70;;;;;;;25.92;43.47;96326.47;3593405;40;20056;-57
2021/06/19 04:48:00;;;;;;;13.65;10.73;;;;;;;26.44;42.78;96328.53;3594002;39;20091;-56
2021/06/19 04:50:29;;;;;;;11.02;9.15;;;;;;;26.86;42.02;96319.91;3583844;40;20195;-57
2021/06/19 04:52:58;;;;;;;12.60;10.02;;;;;;;27.06;39.88;96319.94;3593040;40;20048;-57
2021/06/19 04:55:27;;;;;;;10.80;8.88;;;;;;;26.96;40.80;96322.06;3567042;40;20496;-57
2021/06/19 04:57:57;;;;;;;10.23;9.25;;;;;;;27.05;40.11;96321.06;3582480;40;20131;-56
2021/06/19 05:00:27;;;;;;;14.10;9.93;;;;;;;26.93;40.35;96319.28;3583535;40;20436;-56
2021/06/19 05:02:55;;;;;;;10.18;9.18;;;;;;;27.07;40.81;96316.09;3574966;40;20060;-57
2021/06/19 05:05:24;;;;;;;10.35;9.40;;;;;;;27.28;39.68;96313.06;3581397;40;20049;-57
2021/06/19 05:07:52;;;;;;;10.20;9.20;;;;;;;27.02;40.49;96311.75;3583069;40;20056;-56
2021/06/19 05:10:19;;;;;;;11.23;7.55;;;;;;;26.83;40.81;96309.78;3583374;40;20044;-57
2021/06/19 05:12:47;;;;;;;12.43;7.63;;;;;;;26.87;41.46;96313.34;3583589;40;20051;-57
2021/06/19 05:15:18;;;;;;;8.07;7.28;;;;;;;26.73;40.70;96318.41;3581215;40;20086;-57
2021/06/19 05:17:46;;;;;;;8.98;8.10;;;;;;;26.23;42.56;96316.06;3583232;40;20327;-57
2021/06/19 05:20:13;;;;;;;11.07;9.85;;;;;;;25.55;43.82;96315.81;3582285;40;20062;-57
2021/06/19 05:22:42;;;;;;;12.57;11.43;;;;;;;25.12;44.37;96312.66;3573581;40;20063;-57
2021/06/19 05:25:12;;;;;;;20.40;11.70;;;;;;;24.40;46.09;96308.50;3582132;40;20045;-57
2021/06/19 05:27:42;;;;;;;15.45;12.35;;;;;;;23.86;47.58;96306.69;3583323;40;20699;-56
2021/06/19 05:30:11;;;;;;;15.30;12.23;;;;;;;23.52;48.70;96305.13;3582564;40;20048;-57
2021/06/19 05:32:40;;;;;;;13.40;12.00;;;;;;;23.31;49.63;96301.34;3582084;40;20075;-57
2021/06/19 05:35:08;;;;;;;22.05;14.82;;;;;;;23.15;50.18;96300.31;3582919;40;20053;-56
2021/06/19 05:37:36;;;;;;;19.40;13.80;;;;;;;22.95;51.52;96302.69;3582024;40;20036;-56
2021/06/19 05:40:07;;;;;;;15.63;13.40;;;;;;;22.82;51.99;96304.47;3583116;40;20054;-56
2021/06/19 05:42:35;;;;;;;23.50;14.57;;;;;;;22.59;52.27;96303.97;3564355;40;20512;-56
2021/06/19 05:45:04;;;;;;;17.50;13.07;;;;;;;22.50;52.44;96303.22;3573905;40;20058;-57
2021/06/19 05:47:32;;;;;;;24.27;15.45;;;;;;;22.47;52.65;96309.25;3582539;40;20048;-56
2021/06/19 05:50:00;;;;;;;22.13;16.15;;;;;;;22.31;52.54;96303.59;3583391;40;20080;-57
2021/06/19 05:52:28;;;;;;;22.25;15.93;;;;;;;22.19;53.76;96301.59;3583575;40;20048;-56
2021/06/19 05:54:56;;;;;;;24.02;16.25;;;;;;;22.14;53.88;96301.75;3581177;40;20052;-56
2021/06/19 05:57:23;;;;;;;17.45;15.52;;;;;;;22.06;55.03;96306.03;3574014;40;20424;-56
2021/06/19 05:59:51;;;;;;;23.02;15.68;;;;;;;22.15;53.93;96308.72;3582796;40;20062;-56
2021/06/19 06:02:19;;;;;;;22.73;15.50;;;;;;;22.22;54.36;96307.09;3583118;40;20430;-56
2021/06/19 06:04:46;;;;;;;16.88;15.10;;;;;;;22.25;54.50;96302.97;3573580;40;20048;-56
2021/06/19 06:07:14;;;;;;;22.60;15.48;;;;;;;22.33;55.08;96301.38;3581899;40;20045;-56
2021/06/19 06:09:41;;;;;;;23.55;17.15;;;;;;;22.34;54.42;96287.59;3582514;40;20049;-56
2021/06/19 06:12:09;;;;;;;27.40;18.13;;;;;;;22.36;54.70;96298.81;3582701;40;20053;-56
2021/06/19 06:14:37;;;;;;;26.50;16.33;;;;;;;22.44;53.68;96294.56;3583108;40;20574;-56
2021/06/19 06:17:05;;;;;;;26.15;16.70;;;;;;;22.68;53.63;96293.97;3583270;40;20439;-56
2021/06/19 06:19:33;;;;;;;21.80;15.18;;;;;;;22.80;54.29;96290.56;3582420;40;20736;-56
2021/06/19 06:22:03;;;;;;;17.38;13.98;;;;;;;22.82;53.86;96288.34;3583022;40;20332;-56
2021/06/19 06:24:32;;;;;;;19.95;14.95;;;;;;;22.83;54.21;96294.53;3583508;40;20063;-56
2021/06/19 06:27:00;;;;;;;21.30;17.00;;;;;;;22.88;53.30;96286.25;3584292;40;20415;-56
2021/06/19 06:29:27;;;;;;;23.73;14.68;;;;;;;22.88;52.58;96294.31;3583343;40;20274;-56
2021/06/19 06:31:55;;;;;;;22.48;14.82;;;;;;;22.91;53.57;96287.50;3582650;40;20049;-56
2021/06/19 06:34:24;;;;;;;27.35;15.23;;;;;;;22.97;54.76;96289.66;3584522;40;20076;-56
2021/06/19 06:36:53;;;;;;;31.35;16.58;;;;;;;22.99;54.01;96289.34;3584028;40;20048;-56
2021/06/19 06:39:21;;;;;;;27.75;14.55;;;;;;;23.13;52.28;96289.09;3584356;40;20375;-56
2021/06/19 06:41:49;;;;;;;23.02;14.95;;;;;;;23.28;52.71;96288.53;3584058;40;20100;-56
2021/06/19 06:44:17;;;;;;;20.17;13.98;;;;;;;23.39;53.92;96288.13;3583077;40;20409;-57
2021/06/19 06:46:44;;;;;;;28.80;15.30;;;;;;;23.44;52.02;96277.94;3584077;40;20052;-56
2021/06/19 06:49:12;;;;;;;33.70;16.17;;;;;;;23.46;52.86;96273.03;3583208;40;20567;-56
2021/06/19 06:51:41;;;;;;;23.27;13.57;;;;;;;23.60;52.78;96272.72;3583263;40;20051;-56
2021/06/19 06:54:09;;;;;;;24.23;13.77;;;;;;;23.57;51.97;96273.38;3583713;40;20049;-56
2021/06/19 06:56:37;;;;;;;21.70;14.77;;;;;;;23.70;51.57;96262.66;3582189;40;20175;-56
2021/06/19 06:59:04;;;;;;;19.77;13.10;;;;;;;23.78;51.42;96259.88;3575250;40;20368;-56
2021/06/19 07:01:32;;;;;;;27.08;13.98;;;;;;;23.94;50.83;96261.94;3584332;40;20044;-56
2021/06/19 07:03:59;;;;;;;21.85;13.13;;;;;;;24.12;51.27;96259.09;3575440;40;20060;-56
2021/06/19 07:06:27;;;;;;;17.63;12.55;;;;;;;24.15;50.58;96263.78;3583644;40;20431;-56
2021/06/19 07:08:55;;;;;;;19.77;11.45;;;;;;;24.20;50.14;96266.25;3574780;40;20051;-55
2021/06/19 07:11:23;;;;;;;19.15;11.70;;;;;;;24.20;49.81;96261.66;3584446;40;20054;-56
2021/06/19 07:13:51;;;;;;;20.08;13.00;;;;;;;24.36;49.74;96261.00;3583918;40;20051;-56
2021/06/19 07:16:19;;;;;;;17.00;10.65;;;;;;;24.42;49.01;96255.03;3584159;40;20059;-57
2021/06/19 07:18:47;;;;;;;12.10;10.82;;;;;;;24.55;48.59;96245.00;3582902;40;20048;-55
2021/06/19 07:21:16;;;;;;;13.35;12.05;;;;;;;24.69;48.18;96238.50;3584292;40;20051;-55
2021/06/19 07:23:44;;;;;;;17.10;11.15;;;;;;;24.67;48.45;96238.06;3583350;40;20044;-56
2021/06/19 07:26:11;;;;;;;19.98;12.35;;;;;;;24.68;49.20;96235.00;3574796;40;20314;-55
2021/06/19 07:28:39;;;;;;;12.48;11.00;;;;;;;24.58;48.07;96227.41;3582500;40;20046;-55
2021/06/19 07:31:07;;;;;;;11.90;10.68;;;;;;;24.60;49.08;96219.75;3573676;40;20063;-54
2021/06/19 07:33:35;;;;;;;12.88;10.98;;;;;;;24.65;48.96;96224.13;3583169;40;20312;-57
2021/06/19 07:36:03;;;;;;;13.75;10.75;;;;;;;24.78;49.27;96220.31;3583945;40;20044;-56
2021/06/19 07:38:32;;;;;;;16.90;9.63;;;;;;;24.94;49.25;96223.06;3584170;40;20048;-56
2021/06/19 07:41:00;;;;;;;16.02;10.38;;;;;;;25.06;48.32;96224.94;3583860;40;20049;-56
2021/06/19 07:43:28;;;;;;;12.30;10.95;;;;;;;25.14;48.39;96215.94;3583083;40;20074;-57
2021/06/19 07:45:56;;;;;;;12.88;10.30;;;;;;;25.23;48.04;96212.28;3583655;40;20067;-56
2021/06/19 07:48:24;;;;;;;21.30;11.02;;;;;;;25.33;47.76;96217.19;3583973;40;20312;-56
2021/06/19 07:50:52;;;;;;;20.13;11.25;;;;;;;25.39;48.17;96213.13;3583616;40;20092;-56
2021/06/19 07:53:19;;;;;;;14.38;10.82;;;;;;;25.53;47.99;96206.56;3582924;40;20059;-56
2021/06/19 07:55:47;;;;;;;16.38;11.07;;;;;;;25.70;48.45;96208.16;3582958;40;20056;-56
2021/06/19 07:58:15;;;;;;;16.50;10.18;;;;;;;25.89;48.21;96210.16;3589863;40;20044;-56
2021/06/19 08:00:43;;;;;;;15.30;10.30;;;;;;;26.01;46.94;96196.56;3594152;40;20048;-56
2021/06/19 08:03:11;;;;;;;21.50;10.68;;;;;;;26.14;47.20;96196.50;3584147;40;20044;-56
2021/06/19 08:05:39;;;;;;;12.23;10.23;;;;;;;26.22;47.14;96199.00;3593855;39;20058;-58
2021/06/19 08:08:06;;;;;;;14.65;10.02;;;;;;;26.31;46.71;96190.72;3593500;40;20052;-56
2021/06/19 08:10:34;;;;;;;14.77;9.93;;;;;;;26.40;45.77;96185.88;3573770;40;20040;-56
2021/06/19 08:13:01;;;;;;;18.50;10.80;;;;;;;26.49;45.79;96185.69;3582155;40;20048;-56
2021/06/19 08:15:30;;;;;;;19.13;10.77;;;;;;;26.54;45.79;96181.94;3584302;40;20390;-56
2021/06/19 08:17:57;;;;;;;15.00;9.82;;;;;;;26.57;44.77;96183.16;3593765;40;20081;-57
2021/06/19 08:20:25;;;;;;;10.68;9.23;;;;;;;26.51;44.33;96178.00;3576165;40;20048;-57
2021/06/19 08:22:52;;;;;;;18.38;10.52;;;;;;;26.51;45.27;96177.25;3584182;40;20328;-57
2021/06/19 08:25:20;;;;;;;15.65;9.43;;;;;;;26.69;44.79;96180.34;3584287;40;20570;-57
2021/06/19 08:27:47;;;;;;;15.85;10.43;;;;;;;26.82;44.64;96175.59;3593957;40;20074;-56
2021/06/19 08:30:15;;;;;;;16.83;10.35;;;;;;;26.94;44.61;96177.38;3593476;40;20445;-56
2021/06/19 08:32:43;;;;;;;12.25;8.38;;;;;;;27.09;44.48;96173.03;3584878;40;20041;-56
2021/06/19 08:35:12;;;;;;;10.60;8.65;;;;;;;27.16;43.96;96160.41;3583364;39;20108;-56
2021/06/19 08:37:39;;;;;;;14.05;7.95;;;;;;;27.31;43.56;96157.97;3593842;40;20118;-57
2021/06/19 08:40:08;;;;;;;10.68;8.45;;;;;;;27.31;42.33;96160.69;3594547;40;20055;-57
2021/06/19 08:42:36;;;;;;;10.73;7.65;;;;;;;27.39;43.78;96161.56;3593662;39;20298;-56
2021/06/19 08:45:05;;;;;;;8.63;7.90;;;;;;;27.50;43.50;96162.59;3594014;40;20052;-56
2021/06/19 08:47:37;;;;;;;9.65;8.75;;;;;;;27.61;43.08;96165.47;3593840;39;20044;-56
2021/06/19 08:50:10;;;;;;;9.00;8.10;;;;;;;27.71;42.84;96161.38;3583328;40;20056;-56
2021/06/19 08:52:40;;;;;;;8.95;6.88;;;;;;;27.79;43.02;96160.34;3575954;40;20328;-56
2021/06/19 08:55:11;;;;;;;8.95;8.15;;;;;;;27.99;43.08;96146.72;3593945;39;20056;-56
2021/06/19 08:57:39;;;;;;;7.85;6.85;;;;;;;28.05;40.82;96151.47;3582906;40;20037;-57
2021/06/19 09:00:09;;;;;;;8.77;7.32;;;;;;;28.14;41.18;96147.75;3583791;40;20041;-59
2021/06/19 09:02:38;;;;;;;8.77;7.43;;;;;;;28.18;40.87;96154.78;3583912;40;20873;-56
2021/06/19 09:05:14;;;;;;;9.25;6.78;;;;;;;28.31;39.85;96149.16;3582874;40;20044;-56
2021/06/19 09:07:50;;;;;;;7.28;6.68;;;;;;;28.39;40.88;96139.94;3583283;40;20052;-55
2021/06/19 09:10:24;;;;;;;10.07;6.63;;;;;;;28.51;38.09;96141.69;3582755;40;20128;-55
2021/06/19 09:13:19;;;;;;;6.78;6.28;;;;;;;28.59;38.65;96147.97;3583705;40;20489;-56
2021/06/19 09:15:49;;;;;;;6.70;6.15;;;;;;;28.76;38.16;96152.09;3583282;40;20055;-56
2021/06/19 09:18:20;;;;;;;6.90;6.32;;;;;;;28.87;37.70;96158.44;3580727;40;20065;-61
2021/06/19 09:21:04;;;;;;;7.97;6.55;;;;;;;28.99;36.70;96160.09;3581063;40;20086;-56
2021/06/19 09:23:37;;;;;;;7.78;5.57;;;;;;;28.76;35.42;96160.25;3583405;40;20103;-56
2021/06/19 09:26:11;;;;;;;7.60;6.45;;;;;;;28.77;36.84;96157.16;3583212;40;20074;-56
2021/06/19 09:28:58;;;;;;;14.88;6.30;;;;;;;28.88;36.36;96153.78;3573871;40;20398;-56
2021/06/19 09:31:30;;;;;;;6.55;5.90;;;;;;;28.87;36.17;96152.22;3581960;40;20496;-56
2021/06/19 09:34:08;;;;;;;6.28;5.78;;;;;;;28.98;36.24;96153.13;3581782;40;20036;-56
2021/06/19 09:36:40;;;;;;;5.78;5.20;;;;;;;29.07;33.94;96153.63;3582099;40;20053;-56
2021/06/19 09:39:10;;;;;;;5.50;5.00;;;;;;;29.01;34.68;96155.09;3582068;40;20052;-57
2021/06/19 09:41:46;;;;;;;6.63;6.13;;;;;;;28.95;34.64;96137.59;3572994;40;20045;-57
2021/06/19 09:44:14;;;;;;;8.57;6.40;;;;;;;29.01;34.52;96136.09;3581380;40;20053;-55
2021/06/19 09:46:56;;;;;;;8.15;6.75;;;;;;;29.05;36.60;96122.56;3582443;40;20620;-56
2021/06/19 09:49:33;;;;;;;6.97;6.28;;;;;;;29.14;34.62;96129.25;3574091;40;20055;-55
2021/06/19 09:52:01;;;;;;;6.85;5.82;;;;;;;29.28;33.30;96125.91;3582805;40;20045;-55
2021/06/19 09:54:29;;;;;;;6.97;5.35;;;;;;;29.43;34.00;96124.13;3575516;40;20045;-55
2021/06/19 09:57:01;;;;;;;10.38;5.20;;;;;;;29.57;32.59;96128.13;3583338;40;20074;-55
2021/06/19 09:59:35;;;;;;;5.90;5.30;;;;;;;29.65;32.32;96124.31;3595087;40;20602;-57
2021/06/19 10:02:15;;;;;;;8.63;5.65;;;;;;;29.71;32.03;96122.81;3595096;40;20054;-57
2021/06/19 10:04:50;;;;;;;5.60;4.97;;;;;;;29.82;32.16;96119.41;3585101;40;20067;-55
2021/06/19 10:07:19;;;;;;;10.85;5.72;;;;;;;29.91;32.17;96119.84;3593868;40;20040;-55
2021/06/19 10:09:52;;;;;;;5.85;5.30;;;;;;;30.03;31.56;96113.38;3593898;40;20060;-55
2021/06/19 10:12:22;;;;;;;4.30;3.67;;;;;;;30.14;29.03;96114.22;3576925;40;20048;-55
2021/06/19 10:14:53;;;;;;;3.60;3.30;;;;;;;30.23;25.64;96113.84;3585029;40;20040;-55
2021/06/19 10:17:23;;;;;;;4.93;4.43;;;;;;;30.31;26.73;96115.47;3585741;40;20514;-55
2021/06/19 10:19:52;;;;;;;3.50;3.17;;;;;;;30.34;27.19;96113.91;3594136;40;20066;-56
2021/06/19 10:22:25;;;;;;;3.85;3.47;;;;;;;30.37;28.14;96113.94;3594733;40;20040;-56
2021/06/19 10:24:53;;;;;;;4.95;4.40;;;;;;;30.16;28.42;96111.09;3594617;40;20054;-55
2021/06/19 10:27:23;;;;;;;4.63;4.22;;;;;;;30.14;29.39;96107.97;3585340;39;20059;-56
2021/06/19 10:29:52;;;;;;;4.80;4.40;;;;;;;30.13;29.34;96109.13;3594267;40;20051;-56
2021/06/19 10:32:48;;;;;;;4.45;4.15;;;;;;;30.17;29.78;96099.06;3594701;40;20054;-56
2021/06/19 10:35:21;;;;;;;4.78;4.38;;;;;;;30.24;29.15;96093.66;3594478;40;20056;-55
2021/06/19 10:37:51;;;;;;;4.18;3.88;;;;;;;30.28;29.68;96093.69;3594448;40;20060;-56
2021/06/19 10:40:22;;;;;;;5.47;4.40;;;;;;;30.27;31.48;96082.00;3576896;40;20055;-56
2021/06/19 10:42:54;;;;;;;5.97;4.65;;;;;;;30.39;31.94;96086.34;3576168;40;20059;-56
2021/06/19 10:45:30;;;;;;;4.70;4.30;;;;;;;30.33;30.82;96082.44;3584770;40;20048;-56
2021/06/19 10:48:09;;;;;;;6.05;5.13;;;;;;;30.26;31.90;96085.88;3594233;40;20192;-56
2021/06/19 10:50:49;;;;;;;5.53;5.03;;;;;;;30.27;32.38;96081.25;3594356;40;20050;-56
2021/06/19 10:53:19;;;;;;;5.70;5.13;;;;;;;30.32;33.05;96084.38;3585093;40;20050;-56
2021/06/19 10:55:53;;;;;;;4.32;3.35;;;;;;;30.41;28.55;96080.53;3584852;40;20048;-56
2021/06/19 10:58:34;;;;;;;5.70;3.40;;;;;;;30.46;30.10;96072.78;3594281;39;20047;-56
2021/06/19 11:01:04;;;;;;;4.63;3.95;;;;;;;30.58;31.32;96077.13;3594430;40;20050;-56
2021/06/19 11:03:43;;;;;;;5.57;4.63;;;;;;;30.75;31.79;96075.63;3594512;40;20044;-56
2021/06/19 11:06:22;;;;;;;8.30;4.20;;;;;;;30.77;29.74;96076.00;3575287;40;20408;-56
2021/06/19 11:09:16;;;;;;;4.72;4.32;;;;;;;30.77;29.68;96069.78;3592891;40;20056;-56
2021/06/19 11:12:02;;;;;;;4.03;3.30;;;;;;;30.79;28.69;96072.91;3594686;40;20410;-56
2021/06/19 11:14:39;;;;;;;4.72;4.10;;;;;;;30.87;29.67;96066.31;3576794;40;20050;-56
2021/06/19 11:17:07;;;;;;;5.05;3.67;;;;;;;30.99;29.63;96065.19;3594030;39;20048;-56
2021/06/19 11:19:36;;;;;;;8.35;4.00;;;;;;;31.11;29.81;96064.03;3577595;40;20060;-56
2021/06/19 11:22:28;;;;;;;4.05;3.67;;;;;;;31.23;29.38;96063.69;3595080;40;20048;-57
2021/06/19 11:25:11;;;;;;;9.57;4.35;;;;;;;31.10;28.22;96055.09;3576626;40;20056;-55
2021/06/19 11:27:57;;;;;;;3.58;3.25;;;;;;;31.17;28.09;96062.53;3593894;40;20286;-56
2021/06/19 11:30:34;;;;;;;3.80;3.45;;;;;;;31.21;28.26;96055.09;3585377;40;20048;-57
2021/06/19 11:33:24;;;;;;;3.85;3.40;;;;;;;31.31;28.03;96047.34;3585221;39;20312;-56
2021/06/19 11:36:04;;;;;;;6.55;3.50;;;;;;;31.44;28.07;96045.78;3593948;40;20040;-55
2021/06/19 11:38:52;;;;;;;4.53;3.42;;;;;;;31.52;27.30;96052.78;3585179;40;20044;-55